sensor_id;sensor_type;location;lat;lon;timestamp;temperature;humidity
21104;DHT22;10710;53.398;-1.514;2023-07-09T00:01:44;19.30;99.90
21104;DHT22;10710;53.398;-1.514;2023-07-09T00:04:29;19.20;99.90
21104;DHT22;10710;53.398;-1.514;2023-07-09T00:07:30;19.10;99.90
21104;DHT22;10710;53.398;-1.514;2023-07-09T00:10:19;19.10;99.90
21104;DHT22;10710;53.398;-1.514;2023-07-09T00:13:04;19.20;99.90
21104;DHT22;10710;53.398;-1.514;2023-07-09T00:15:48;19.20;99.90
21104;DHT22;10710;53.398;-1.514;2023-07-09T00:18:33;19.20;99.90
21104;DHT22;10710;53.398;-1.514;2023-07-09T00:21:20;19.10;99.90
21104;DHT22;10710;53.398;-1.514;2023-07-09T00:24:05;19.10;99.90
21104;DHT22;10710;53.398;-1.514;2023-07-09T00:26:49;19.10;99.90
21104;DHT22;10710;53.398;-1.514;2023-07-09T00:29:34;19.00;99.90
21104;DHT22;10710;53.398;-1.514;2023-07-09T00:32:20;19.10;99.90
21104;DHT22;10710;53.398;-1.514;2023-07-09T00:35:05;19.00;99.90
21104;DHT22;10710;53.398;-1.514;2023-07-09T00:37:49;18.90;99.90
21104;DHT22;10710;53.398;-1.514;2023-07-09T00:40:34;18.70;99.90
21104;DHT22;10710;53.398;-1.514;2023-07-09T00:43:18;18.70;99.90
21104;DHT22;10710;53.398;-1.514;2023-07-09T00:49:07;18.80;99.90
21104;DHT22;10710;53.398;-1.514;2023-07-09T00:51:51;18.80;99.90
21104;DHT22;10710;53.398;-1.514;2023-07-09T00:54:41;18.70;99.90
21104;DHT22;10710;53.398;-1.514;2023-07-09T00:57:27;18.70;99.90
21104;DHT22;10710;53.398;-1.514;2023-07-09T01:00:13;18.60;99.90
21104;DHT22;10710;53.398;-1.514;2023-07-09T01:02:59;18.60;99.90
21104;DHT22;10710;53.398;-1.514;2023-07-09T01:05:44;18.60;99.90
21104;DHT22;10710;53.398;-1.514;2023-07-09T01:08:32;18.50;99.90
21104;DHT22;10710;53.398;-1.514;2023-07-09T01:11:17;18.50;99.90
21104;DHT22;10710;53.398;-1.514;2023-07-09T01:14:07;18.50;99.90
21104;DHT22;10710;53.398;-1.514;2023-07-09T01:16:55;18.50;99.90
21104;DHT22;10710;53.398;-1.514;2023-07-09T01:19:42;18.40;99.90
21104;DHT22;10710;53.398;-1.514;2023-07-09T01:22:27;18.40;99.90
21104;DHT22;10710;53.398;-1.514;2023-07-09T01:25:13;18.40;99.90
21104;DHT22;10710;53.398;-1.514;2023-07-09T01:27:59;18.30;99.90
21104;DHT22;10710;53.398;-1.514;2023-07-09T01:30:44;18.20;99.90
21104;DHT22;10710;53.398;-1.514;2023-07-09T01:33:28;18.20;99.90
21104;DHT22;10710;53.398;-1.514;2023-07-09T01:36:18;18.10;99.90
21104;DHT22;10710;53.398;-1.514;2023-07-09T01:39:06;17.90;99.90
21104;DHT22;10710;53.398;-1.514;2023-07-09T01:41:50;17.80;99.90
21104;DHT22;10710;53.398;-1.514;2023-07-09T01:44:36;17.90;99.90
21104;DHT22;10710;53.398;-1.514;2023-07-09T01:47:21;17.90;99.90
21104;DHT22;10710;53.398;-1.514;2023-07-09T01:50:08;17.90;99.90
21104;DHT22;10710;53.398;-1.514;2023-07-09T01:52:54;17.90;99.90
21104;DHT22;10710;53.398;-1.514;2023-07-09T01:55:39;17.80;99.90
21104;DHT22;10710;53.398;-1.514;2023-07-09T01:58:23;18.00;99.90
21104;DHT22;10710;53.398;-1.514;2023-07-09T02:01:09;17.90;99.90
21104;DHT22;10710;53.398;-1.514;2023-07-09T02:03:54;17.90;99.90
21104;DHT22;10710;53.398;-1.514;2023-07-09T02:06:38;17.90;99.90
21104;DHT22;10710;53.398;-1.514;2023-07-09T02:09:23;17.80;99.90
21104;DHT22;10710;53.398;-1.514;2023-07-09T02:12:08;17.70;99.90
21104;DHT22;10710;53.398;-1.514;2023-07-09T02:14:52;17.70;99.90
21104;DHT22;10710;53.398;-1.514;2023-07-09T02:17:37;17.80;99.90
21104;DHT22;10710;53.398;-1.514;2023-07-09T02:20:21;17.80;99.90
21104;DHT22;10710;53.398;-1.514;2023-07-09T02:23:07;17.80;99.90
21104;DHT22;10710;53.398;-1.514;2023-07-09T02:25:52;17.80;99.90
21104;DHT22;10710;53.398;-1.514;2023-07-09T02:28:36;17.80;99.90
21104;DHT22;10710;53.398;-1.514;2023-07-09T02:31:20;17.80;99.90
21104;DHT22;10710;53.398;-1.514;2023-07-09T02:34:05;17.80;99.90
21104;DHT22;10710;53.398;-1.514;2023-07-09T02:36:49;17.70;99.90
21104;DHT22;10710;53.398;-1.514;2023-07-09T02:39:33;17.70;99.90
21104;DHT22;10710;53.398;-1.514;2023-07-09T02:42:19;17.60;99.90
21104;DHT22;10710;53.398;-1.514;2023-07-09T02:45:04;17.50;99.90
21104;DHT22;10710;53.398;-1.514;2023-07-09T02:47:49;17.50;99.90
21104;DHT22;10710;53.398;-1.514;2023-07-09T02:50:33;17.50;99.90
21104;DHT22;10710;53.398;-1.514;2023-07-09T02:53:17;17.40;99.90
21104;DHT22;10710;53.398;-1.514;2023-07-09T02:56:01;17.10;99.90
21104;DHT22;10710;53.398;-1.514;2023-07-09T02:58:45;17.20;99.90
21104;DHT22;10710;53.398;-1.514;2023-07-09T03:01:30;17.20;99.90
21104;DHT22;10710;53.398;-1.514;2023-07-09T03:04:14;17.10;99.90
21104;DHT22;10710;53.398;-1.514;2023-07-09T03:06:58;17.10;99.90
21104;DHT22;10710;53.398;-1.514;2023-07-09T03:09:44;17.00;99.90
21104;DHT22;10710;53.398;-1.514;2023-07-09T03:12:28;17.00;99.90
21104;DHT22;10710;53.398;-1.514;2023-07-09T03:15:12;16.90;99.90
21104;DHT22;10710;53.398;-1.514;2023-07-09T03:17:57;16.90;99.90
21104;DHT22;10710;53.398;-1.514;2023-07-09T03:20:42;17.00;99.90
21104;DHT22;10710;53.398;-1.514;2023-07-09T03:23:26;17.10;99.90
21104;DHT22;10710;53.398;-1.514;2023-07-09T03:26:10;17.10;99.90
21104;DHT22;10710;53.398;-1.514;2023-07-09T03:28:55;17.10;99.90
21104;DHT22;10710;53.398;-1.514;2023-07-09T03:31:39;17.10;99.90
21104;DHT22;10710;53.398;-1.514;2023-07-09T03:34:23;17.10;99.90
21104;DHT22;10710;53.398;-1.514;2023-07-09T03:37:08;17.10;99.90
21104;DHT22;10710;53.398;-1.514;2023-07-09T03:39:52;17.10;99.90
21104;DHT22;10710;53.398;-1.514;2023-07-09T03:42:36;17.10;99.90
21104;DHT22;10710;53.398;-1.514;2023-07-09T03:45:20;17.10;99.90
21104;DHT22;10710;53.398;-1.514;2023-07-09T03:48:05;17.20;99.90
21104;DHT22;10710;53.398;-1.514;2023-07-09T03:50:49;17.20;99.90
21104;DHT22;10710;53.398;-1.514;2023-07-09T03:53:34;17.20;99.90
21104;DHT22;10710;53.398;-1.514;2023-07-09T03:56:18;17.30;99.90
21104;DHT22;10710;53.398;-1.514;2023-07-09T03:59:02;17.30;99.90
21104;DHT22;10710;53.398;-1.514;2023-07-09T04:01:46;17.10;99.90
21104;DHT22;10710;53.398;-1.514;2023-07-09T04:04:30;17.20;99.90
21104;DHT22;10710;53.398;-1.514;2023-07-09T04:07:15;17.20;99.90
21104;DHT22;10710;53.398;-1.514;2023-07-09T04:09:59;17.20;99.90
21104;DHT22;10710;53.398;-1.514;2023-07-09T04:12:44;17.30;99.90
21104;DHT22;10710;53.398;-1.514;2023-07-09T04:15:29;17.30;99.90
21104;DHT22;10710;53.398;-1.514;2023-07-09T04:18:14;17.30;99.90
21104;DHT22;10710;53.398;-1.514;2023-07-09T04:20:58;17.20;99.90
21104;DHT22;10710;53.398;-1.514;2023-07-09T04:23:42;17.30;99.90
21104;DHT22;10710;53.398;-1.514;2023-07-09T04:26:26;17.30;99.90
21104;DHT22;10710;53.398;-1.514;2023-07-09T04:29:12;17.30;99.90
21104;DHT22;10710;53.398;-1.514;2023-07-09T04:31:56;17.30;99.90
21104;DHT22;10710;53.398;-1.514;2023-07-09T04:34:41;17.30;99.90
21104;DHT22;10710;53.398;-1.514;2023-07-09T04:37:25;17.30;99.90
21104;DHT22;10710;53.398;-1.514;2023-07-09T04:40:11;17.30;99.90
21104;DHT22;10710;53.398;-1.514;2023-07-09T04:42:56;17.20;99.90
21104;DHT22;10710;53.398;-1.514;2023-07-09T04:45:40;17.20;99.90
21104;DHT22;10710;53.398;-1.514;2023-07-09T04:48:24;17.20;99.90
21104;DHT22;10710;53.398;-1.514;2023-07-09T04:51:08;17.30;99.90
21104;DHT22;10710;53.398;-1.514;2023-07-09T04:53:52;17.30;99.90
21104;DHT22;10710;53.398;-1.514;2023-07-09T04:56:36;17.40;99.90
21104;DHT22;10710;53.398;-1.514;2023-07-09T04:59:22;17.40;99.90
21104;DHT22;10710;53.398;-1.514;2023-07-09T05:02:06;17.40;99.90
21104;DHT22;10710;53.398;-1.514;2023-07-09T05:04:51;17.40;99.90
21104;DHT22;10710;53.398;-1.514;2023-07-09T05:07:36;17.30;99.90
21104;DHT22;10710;53.398;-1.514;2023-07-09T05:10:20;17.40;99.90
21104;DHT22;10710;53.398;-1.514;2023-07-09T05:13:04;17.40;99.90
21104;DHT22;10710;53.398;-1.514;2023-07-09T05:15:49;17.50;99.90
21104;DHT22;10710;53.398;-1.514;2023-07-09T05:18:34;17.40;99.90
21104;DHT22;10710;53.398;-1.514;2023-07-09T05:21:18;17.40;99.90
21104;DHT22;10710;53.398;-1.514;2023-07-09T05:24:04;17.40;99.90
21104;DHT22;10710;53.398;-1.514;2023-07-09T05:26:48;17.40;99.90
21104;DHT22;10710;53.398;-1.514;2023-07-09T05:29:32;17.40;99.90
21104;DHT22;10710;53.398;-1.514;2023-07-09T05:32:17;17.40;99.90
21104;DHT22;10710;53.398;-1.514;2023-07-09T05:35:01;17.50;99.90
21104;DHT22;10710;53.398;-1.514;2023-07-09T05:37:45;17.50;99.90
21104;DHT22;10710;53.398;-1.514;2023-07-09T05:40:29;17.60;99.90
21104;DHT22;10710;53.398;-1.514;2023-07-09T05:43:14;17.70;99.90
21104;DHT22;10710;53.398;-1.514;2023-07-09T05:45:58;17.70;99.90
21104;DHT22;10710;53.398;-1.514;2023-07-09T05:48:45;17.70;99.90
21104;DHT22;10710;53.398;-1.514;2023-07-09T05:51:30;17.80;99.90
21104;DHT22;10710;53.398;-1.514;2023-07-09T05:54:14;17.70;99.90
21104;DHT22;10710;53.398;-1.514;2023-07-09T05:56:58;17.70;99.90
21104;DHT22;10710;53.398;-1.514;2023-07-09T05:59:42;17.50;99.90
21104;DHT22;10710;53.398;-1.514;2023-07-09T06:02:27;17.70;99.90
21104;DHT22;10710;53.398;-1.514;2023-07-09T06:05:11;17.70;99.90
21104;DHT22;10710;53.398;-1.514;2023-07-09T06:07:56;17.70;99.90
21104;DHT22;10710;53.398;-1.514;2023-07-09T06:10:40;17.80;99.90
21104;DHT22;10710;53.398;-1.514;2023-07-09T06:13:27;17.80;99.90
21104;DHT22;10710;53.398;-1.514;2023-07-09T06:16:11;17.70;99.90
21104;DHT22;10710;53.398;-1.514;2023-07-09T06:18:56;17.70;99.90
21104;DHT22;10710;53.398;-1.514;2023-07-09T06:21:40;17.70;99.90
21104;DHT22;10710;53.398;-1.514;2023-07-09T06:24:24;17.80;99.90
21104;DHT22;10710;53.398;-1.514;2023-07-09T06:27:09;17.80;99.90
21104;DHT22;10710;53.398;-1.514;2023-07-09T06:29:53;17.90;99.90
21104;DHT22;10710;53.398;-1.514;2023-07-09T06:32:38;17.80;99.90
21104;DHT22;10710;53.398;-1.514;2023-07-09T06:35:22;18.00;99.90
21104;DHT22;10710;53.398;-1.514;2023-07-09T06:38:06;17.90;99.90
21104;DHT22;10710;53.398;-1.514;2023-07-09T06:40:51;17.90;99.90
21104;DHT22;10710;53.398;-1.514;2023-07-09T06:43:35;18.10;99.90
21104;DHT22;10710;53.398;-1.514;2023-07-09T06:46:22;18.10;99.90
21104;DHT22;10710;53.398;-1.514;2023-07-09T06:49:07;18.30;99.90
21104;DHT22;10710;53.398;-1.514;2023-07-09T06:51:52;18.50;99.90
21104;DHT22;10710;53.398;-1.514;2023-07-09T06:54:36;18.50;99.90
21104;DHT22;10710;53.398;-1.514;2023-07-09T06:57:20;18.60;99.90
21104;DHT22;10710;53.398;-1.514;2023-07-09T07:00:05;18.70;99.90
21104;DHT22;10710;53.398;-1.514;2023-07-09T07:02:51;18.80;99.90
21104;DHT22;10710;53.398;-1.514;2023-07-09T07:05:35;18.70;99.90
21104;DHT22;10710;53.398;-1.514;2023-07-09T07:08:21;18.80;99.90
21104;DHT22;10710;53.398;-1.514;2023-07-09T07:11:06;18.80;99.90
21104;DHT22;10710;53.398;-1.514;2023-07-09T07:13:51;18.90;99.90
21104;DHT22;10710;53.398;-1.514;2023-07-09T07:16:36;18.80;99.90
21104;DHT22;10710;53.398;-1.514;2023-07-09T07:19:20;18.90;99.90
21104;DHT22;10710;53.398;-1.514;2023-07-09T07:22:04;18.90;99.90
21104;DHT22;10710;53.398;-1.514;2023-07-09T07:24:51;19.10;99.90
21104;DHT22;10710;53.398;-1.514;2023-07-09T07:27:36;19.30;99.90
21104;DHT22;10710;53.398;-1.514;2023-07-09T07:30:21;19.40;99.90
21104;DHT22;10710;53.398;-1.514;2023-07-09T07:33:06;19.40;99.90
21104;DHT22;10710;53.398;-1.514;2023-07-09T07:35:50;19.40;99.90
21104;DHT22;10710;53.398;-1.514;2023-07-09T07:38:34;19.40;99.90
21104;DHT22;10710;53.398;-1.514;2023-07-09T07:41:18;19.30;99.90
21104;DHT22;10710;53.398;-1.514;2023-07-09T07:44:02;19.30;99.90
21104;DHT22;10710;53.398;-1.514;2023-07-09T07:46:47;19.40;99.90
21104;DHT22;10710;53.398;-1.514;2023-07-09T07:49:32;19.50;99.90
21104;DHT22;10710;53.398;-1.514;2023-07-09T07:52:16;19.60;99.90
21104;DHT22;10710;53.398;-1.514;2023-07-09T07:55:00;19.90;99.90
21104;DHT22;10710;53.398;-1.514;2023-07-09T07:57:44;20.20;99.90
21104;DHT22;10710;53.398;-1.514;2023-07-09T08:00:29;20.30;99.90
21104;DHT22;10710;53.398;-1.514;2023-07-09T08:03:13;20.50;99.90
21104;DHT22;10710;53.398;-1.514;2023-07-09T08:05:58;20.30;99.90
21104;DHT22;10710;53.398;-1.514;2023-07-09T08:08:42;20.40;99.90
21104;DHT22;10710;53.398;-1.514;2023-07-09T08:11:26;20.40;99.90
21104;DHT22;10710;53.398;-1.514;2023-07-09T08:14:12;20.10;99.90
21104;DHT22;10710;53.398;-1.514;2023-07-09T08:16:56;20.00;99.90
21104;DHT22;10710;53.398;-1.514;2023-07-09T08:19:48;20.00;99.90
21104;DHT22;10710;53.398;-1.514;2023-07-09T08:22:33;20.00;99.90
21104;DHT22;10710;53.398;-1.514;2023-07-09T08:25:17;20.00;99.90
21104;DHT22;10710;53.398;-1.514;2023-07-09T08:28:01;20.10;99.90
21104;DHT22;10710;53.398;-1.514;2023-07-09T08:30:45;20.00;99.90
21104;DHT22;10710;53.398;-1.514;2023-07-09T08:33:30;20.00;99.90
21104;DHT22;10710;53.398;-1.514;2023-07-09T08:36:14;20.00;99.90
21104;DHT22;10710;53.398;-1.514;2023-07-09T08:39:01;20.00;99.90
21104;DHT22;10710;53.398;-1.514;2023-07-09T08:41:57;20.00;99.90
21104;DHT22;10710;53.398;-1.514;2023-07-09T08:48:04;20.10;99.90
21104;DHT22;10710;53.398;-1.514;2023-07-09T08:51:00;20.30;99.90
21104;DHT22;10710;53.398;-1.514;2023-07-09T08:54:13;20.40;99.90
21104;DHT22;10710;53.398;-1.514;2023-07-09T08:57:02;20.40;99.90
21104;DHT22;10710;53.398;-1.514;2023-07-09T09:00:01;20.30;99.90
21104;DHT22;10710;53.398;-1.514;2023-07-09T09:02:54;20.40;99.90
21104;DHT22;10710;53.398;-1.514;2023-07-09T09:05:43;20.40;99.90
21104;DHT22;10710;53.398;-1.514;2023-07-09T09:11:46;20.30;99.90
21104;DHT22;10710;53.398;-1.514;2023-07-09T09:14:39;20.40;99.90
21104;DHT22;10710;53.398;-1.514;2023-07-09T09:17:26;20.30;99.90
21104;DHT22;10710;53.398;-1.514;2023-07-09T09:20:19;20.30;99.90
21104;DHT22;10710;53.398;-1.514;2023-07-09T09:23:15;20.30;99.90
21104;DHT22;10710;53.398;-1.514;2023-07-09T09:26:01;20.40;99.90
21104;DHT22;10710;53.398;-1.514;2023-07-09T09:28:46;20.60;99.90
21104;DHT22;10710;53.398;-1.514;2023-07-09T09:31:31;20.70;99.90
21104;DHT22;10710;53.398;-1.514;2023-07-09T09:34:25;20.80;99.90
21104;DHT22;10710;53.398;-1.514;2023-07-09T09:37:11;21.00;99.90
21104;DHT22;10710;53.398;-1.514;2023-07-09T09:39:58;21.30;99.90
21104;DHT22;10710;53.398;-1.514;2023-07-09T09:42:42;21.60;99.90
21104;DHT22;10710;53.398;-1.514;2023-07-09T09:45:34;21.70;99.90
21104;DHT22;10710;53.398;-1.514;2023-07-09T09:48:30;21.90;99.90
21104;DHT22;10710;53.398;-1.514;2023-07-09T09:51:17;21.90;99.90
21104;DHT22;10710;53.398;-1.514;2023-07-09T09:54:02;22.00;99.90
21104;DHT22;10710;53.398;-1.514;2023-07-09T09:56:48;22.10;99.90
21104;DHT22;10710;53.398;-1.514;2023-07-09T09:59:36;22.40;99.90
21104;DHT22;10710;53.398;-1.514;2023-07-09T10:02:24;22.50;99.90
21104;DHT22;10710;53.398;-1.514;2023-07-09T10:05:15;22.60;99.90
21104;DHT22;10710;53.398;-1.514;2023-07-09T10:08:08;22.80;99.90
21104;DHT22;10710;53.398;-1.514;2023-07-09T10:10:58;22.90;99.90
21104;DHT22;10710;53.398;-1.514;2023-07-09T10:13:49;23.20;99.90
21104;DHT22;10710;53.398;-1.514;2023-07-09T10:16:45;23.20;99.90
21104;DHT22;10710;53.398;-1.514;2023-07-09T10:22:37;22.70;99.90
21104;DHT22;10710;53.398;-1.514;2023-07-09T10:40:33;22.50;99.90
21104;DHT22;10710;53.398;-1.514;2023-07-09T10:46:28;22.10;99.90
21104;DHT22;10710;53.398;-1.514;2023-07-09T10:49:16;22.10;99.90
21104;DHT22;10710;53.398;-1.514;2023-07-09T10:52:41;22.00;99.90
21104;DHT22;10710;53.398;-1.514;2023-07-09T11:01:42;21.70;99.90
21104;DHT22;10710;53.398;-1.514;2023-07-09T11:04:43;21.80;99.90
21104;DHT22;10710;53.398;-1.514;2023-07-09T11:07:45;21.90;99.90
21104;DHT22;10710;53.398;-1.514;2023-07-09T11:10:36;22.10;99.90
21104;DHT22;10710;53.398;-1.514;2023-07-09T11:13:44;22.30;99.90
21104;DHT22;10710;53.398;-1.514;2023-07-09T11:16:35;22.40;99.90
21104;DHT22;10710;53.398;-1.514;2023-07-09T11:19:21;22.50;99.90
21104;DHT22;10710;53.398;-1.514;2023-07-09T11:22:20;22.40;99.90
21104;DHT22;10710;53.398;-1.514;2023-07-09T11:25:12;22.30;99.90
21104;DHT22;10710;53.398;-1.514;2023-07-09T11:28:05;22.30;99.90
21104;DHT22;10710;53.398;-1.514;2023-07-09T11:30:53;22.40;99.90
21104;DHT22;10710;53.398;-1.514;2023-07-09T11:33:47;22.30;99.90
21104;DHT22;10710;53.398;-1.514;2023-07-09T11:36:32;22.20;99.90
21104;DHT22;10710;53.398;-1.514;2023-07-09T11:42:33;22.30;99.90
21104;DHT22;10710;53.398;-1.514;2023-07-09T11:45:32;22.50;99.90
21104;DHT22;10710;53.398;-1.514;2023-07-09T11:48:25;22.80;99.90
21104;DHT22;10710;53.398;-1.514;2023-07-09T11:51:45;22.90;99.90
21104;DHT22;10710;53.398;-1.514;2023-07-09T11:54:36;22.90;99.90
21104;DHT22;10710;53.398;-1.514;2023-07-09T11:57:21;22.80;99.90
21104;DHT22;10710;53.398;-1.514;2023-07-09T12:00:07;22.70;99.90
21104;DHT22;10710;53.398;-1.514;2023-07-09T12:02:52;22.80;99.90
21104;DHT22;10710;53.398;-1.514;2023-07-09T12:05:37;22.80;99.90
21104;DHT22;10710;53.398;-1.514;2023-07-09T12:08:37;23.00;99.90
21104;DHT22;10710;53.398;-1.514;2023-07-09T12:11:33;23.00;99.90
21104;DHT22;10710;53.398;-1.514;2023-07-09T12:14:21;23.10;99.90
21104;DHT22;10710;53.398;-1.514;2023-07-09T12:17:08;23.20;99.90
21104;DHT22;10710;53.398;-1.514;2023-07-09T12:19:53;23.30;99.90
21104;DHT22;10710;53.398;-1.514;2023-07-09T12:22:39;23.20;99.90
21104;DHT22;10710;53.398;-1.514;2023-07-09T12:25:25;23.10;99.90
21104;DHT22;10710;53.398;-1.514;2023-07-09T12:28:14;23.10;99.90
21104;DHT22;10710;53.398;-1.514;2023-07-09T12:30:59;23.50;99.90
21104;DHT22;10710;53.398;-1.514;2023-07-09T12:33:51;23.70;99.90
21104;DHT22;10710;53.398;-1.514;2023-07-09T12:36:37;23.70;99.90
21104;DHT22;10710;53.398;-1.514;2023-07-09T12:39:27;23.90;99.90
21104;DHT22;10710;53.398;-1.514;2023-07-09T12:42:18;24.00;99.90
21104;DHT22;10710;53.398;-1.514;2023-07-09T12:45:03;24.10;99.90
21104;DHT22;10710;53.398;-1.514;2023-07-09T12:47:49;24.00;99.90
21104;DHT22;10710;53.398;-1.514;2023-07-09T12:50:35;24.00;99.90
21104;DHT22;10710;53.398;-1.514;2023-07-09T12:53:20;24.30;99.90
21104;DHT22;10710;53.398;-1.514;2023-07-09T12:56:11;24.60;99.90
21104;DHT22;10710;53.398;-1.514;2023-07-09T12:58:57;24.80;99.90
21104;DHT22;10710;53.398;-1.514;2023-07-09T13:01:42;25.10;99.90
21104;DHT22;10710;53.398;-1.514;2023-07-09T13:04:37;25.30;99.90
21104;DHT22;10710;53.398;-1.514;2023-07-09T13:10:18;26.20;99.90
21104;DHT22;10710;53.398;-1.514;2023-07-09T13:13:04;26.20;99.90
21104;DHT22;10710;53.398;-1.514;2023-07-09T13:16:00;26.20;99.90
21104;DHT22;10710;53.398;-1.514;2023-07-09T13:18:45;26.10;99.90
21104;DHT22;10710;53.398;-1.514;2023-07-09T13:21:29;25.90;99.90
21104;DHT22;10710;53.398;-1.514;2023-07-09T13:24:24;26.30;99.90
21104;DHT22;10710;53.398;-1.514;2023-07-09T13:27:13;26.60;99.90
21104;DHT22;10710;53.398;-1.514;2023-07-09T13:29:58;26.70;99.90
21104;DHT22;10710;53.398;-1.514;2023-07-09T13:32:45;26.80;99.90
21104;DHT22;10710;53.398;-1.514;2023-07-09T13:35:30;27.40;99.90
21104;DHT22;10710;53.398;-1.514;2023-07-09T13:38:20;27.80;99.90
21104;DHT22;10710;53.398;-1.514;2023-07-09T13:41:17;28.10;99.90
21104;DHT22;10710;53.398;-1.514;2023-07-09T13:44:04;29.10;99.90
21104;DHT22;10710;53.398;-1.514;2023-07-09T13:46:53;29.20;99.90
21104;DHT22;10710;53.398;-1.514;2023-07-09T13:49:38;29.70;99.90
21104;DHT22;10710;53.398;-1.514;2023-07-09T13:52:23;29.70;99.90
21104;DHT22;10710;53.398;-1.514;2023-07-09T13:55:20;30.20;99.90
21104;DHT22;10710;53.398;-1.514;2023-07-09T13:58:12;30.70;99.90
21104;DHT22;10710;53.398;-1.514;2023-07-09T14:01:08;30.50;99.90
21104;DHT22;10710;53.398;-1.514;2023-07-09T14:03:56;29.50;99.90
21104;DHT22;10710;53.398;-1.514;2023-07-09T14:06:43;28.90;99.90
21104;DHT22;10710;53.398;-1.514;2023-07-09T14:09:27;28.60;99.90
21104;DHT22;10710;53.398;-1.514;2023-07-09T14:12:12;28.70;99.90
21104;DHT22;10710;53.398;-1.514;2023-07-09T14:14:59;29.20;99.90
21104;DHT22;10710;53.398;-1.514;2023-07-09T14:17:44;30.30;99.90
21104;DHT22;10710;53.398;-1.514;2023-07-09T14:20:29;31.10;99.90
21104;DHT22;10710;53.398;-1.514;2023-07-09T14:23:14;29.80;99.90
21104;DHT22;10710;53.398;-1.514;2023-07-09T14:25:59;28.90;99.90
21104;DHT22;10710;53.398;-1.514;2023-07-09T14:28:43;29.00;99.90
21104;DHT22;10710;53.398;-1.514;2023-07-09T14:31:28;29.50;99.90
21104;DHT22;10710;53.398;-1.514;2023-07-09T14:34:27;30.70;99.90
21104;DHT22;10710;53.398;-1.514;2023-07-09T14:37:12;31.90;99.90
21104;DHT22;10710;53.398;-1.514;2023-07-09T14:39:56;32.50;99.90
21104;DHT22;10710;53.398;-1.514;2023-07-09T14:42:41;32.20;99.90
21104;DHT22;10710;53.398;-1.514;2023-07-09T14:45:27;31.20;99.90
21104;DHT22;10710;53.398;-1.514;2023-07-09T14:48:18;31.20;99.90
21104;DHT22;10710;53.398;-1.514;2023-07-09T14:51:14;32.00;99.90
21104;DHT22;10710;53.398;-1.514;2023-07-09T14:53:59;32.20;99.90
21104;DHT22;10710;53.398;-1.514;2023-07-09T14:56:44;32.00;99.90
21104;DHT22;10710;53.398;-1.514;2023-07-09T14:59:28;32.50;99.90
21104;DHT22;10710;53.398;-1.514;2023-07-09T15:05:04;33.30;99.90
21104;DHT22;10710;53.398;-1.514;2023-07-09T15:07:50;32.80;99.90
21104;DHT22;10710;53.398;-1.514;2023-07-09T15:10:35;32.00;99.90
21104;DHT22;10710;53.398;-1.514;2023-07-09T15:13:28;30.80;99.90
21104;DHT22;10710;53.398;-1.514;2023-07-09T15:16:14;30.30;99.90
21104;DHT22;10710;53.398;-1.514;2023-07-09T15:18:58;30.30;99.90
21104;DHT22;10710;53.398;-1.514;2023-07-09T15:21:42;30.00;99.90
21104;DHT22;10710;53.398;-1.514;2023-07-09T15:24:32;30.20;99.90
21104;DHT22;10710;53.398;-1.514;2023-07-09T15:27:17;30.00;99.90
21104;DHT22;10710;53.398;-1.514;2023-07-09T15:30:04;29.90;99.90
21104;DHT22;10710;53.398;-1.514;2023-07-09T15:32:49;29.60;99.90
21104;DHT22;10710;53.398;-1.514;2023-07-09T15:35:35;29.20;99.90
21104;DHT22;10710;53.398;-1.514;2023-07-09T15:38:31;29.30;99.90
21104;DHT22;10710;53.398;-1.514;2023-07-09T15:41:17;29.80;99.90
21104;DHT22;10710;53.398;-1.514;2023-07-09T15:44:02;30.40;99.90
21104;DHT22;10710;53.398;-1.514;2023-07-09T15:46:52;30.10;99.90
21104;DHT22;10710;53.398;-1.514;2023-07-09T15:49:38;30.40;99.90
21104;DHT22;10710;53.398;-1.514;2023-07-09T15:52:22;30.60;99.90
21104;DHT22;10710;53.398;-1.514;2023-07-09T15:55:19;30.60;99.90
21104;DHT22;10710;53.398;-1.514;2023-07-09T15:58:03;31.00;99.90
21104;DHT22;10710;53.398;-1.514;2023-07-09T16:00:49;30.70;99.90
21104;DHT22;10710;53.398;-1.514;2023-07-09T16:03:34;30.70;99.90
21104;DHT22;10710;53.398;-1.514;2023-07-09T16:06:19;30.70;99.90
21104;DHT22;10710;53.398;-1.514;2023-07-09T16:09:04;30.70;99.90
21104;DHT22;10710;53.398;-1.514;2023-07-09T16:11:51;30.00;99.90
21104;DHT22;10710;53.398;-1.514;2023-07-09T16:14:36;29.20;99.90
21104;DHT22;10710;53.398;-1.514;2023-07-09T16:17:20;28.30;99.90
21104;DHT22;10710;53.398;-1.514;2023-07-09T16:20:05;27.60;99.90
21104;DHT22;10710;53.398;-1.514;2023-07-09T16:22:50;27.30;99.90
21104;DHT22;10710;53.398;-1.514;2023-07-09T16:25:36;26.90;99.90
21104;DHT22;10710;53.398;-1.514;2023-07-09T16:28:20;26.60;99.90
21104;DHT22;10710;53.398;-1.514;2023-07-09T16:31:05;26.20;99.90
21104;DHT22;10710;53.398;-1.514;2023-07-09T16:33:49;26.00;99.90
21104;DHT22;10710;53.398;-1.514;2023-07-09T16:36:33;25.80;99.90
21104;DHT22;10710;53.398;-1.514;2023-07-09T16:42:13;25.30;99.90
21104;DHT22;10710;53.398;-1.514;2023-07-09T16:44:57;25.20;99.90
21104;DHT22;10710;53.398;-1.514;2023-07-09T16:47:42;25.20;99.90
21104;DHT22;10710;53.398;-1.514;2023-07-09T16:50:27;25.20;99.90
21104;DHT22;10710;53.398;-1.514;2023-07-09T16:53:16;25.00;99.90
21104;DHT22;10710;53.398;-1.514;2023-07-09T16:56:00;24.40;99.90
21104;DHT22;10710;53.398;-1.514;2023-07-09T16:58:45;22.80;99.90
21104;DHT22;10710;53.398;-1.514;2023-07-09T17:01:29;21.30;99.90
21104;DHT22;10710;53.398;-1.514;2023-07-09T17:04:23;20.10;99.90
21104;DHT22;10710;53.398;-1.514;2023-07-09T17:07:08;19.10;99.90
21104;DHT22;10710;53.398;-1.514;2023-07-09T17:09:53;18.50;99.90
21104;DHT22;10710;53.398;-1.514;2023-07-09T17:12:37;18.20;99.90
21104;DHT22;10710;53.398;-1.514;2023-07-09T17:15:33;18.10;99.90
21104;DHT22;10710;53.398;-1.514;2023-07-09T17:18:25;18.10;99.90
21104;DHT22;10710;53.398;-1.514;2023-07-09T17:21:09;18.10;99.90
21104;DHT22;10710;53.398;-1.514;2023-07-09T17:23:53;17.80;99.90
21104;DHT22;10710;53.398;-1.514;2023-07-09T17:26:38;17.80;99.90
21104;DHT22;10710;53.398;-1.514;2023-07-09T17:29:24;17.80;99.90
21104;DHT22;10710;53.398;-1.514;2023-07-09T17:32:09;17.90;99.90
21104;DHT22;10710;53.398;-1.514;2023-07-09T17:34:55;17.90;99.90
21104;DHT22;10710;53.398;-1.514;2023-07-09T17:37:50;18.00;99.90
21104;DHT22;10710;53.398;-1.514;2023-07-09T17:40:36;18.00;99.90
21104;DHT22;10710;53.398;-1.514;2023-07-09T17:43:22;18.10;99.90
21104;DHT22;10710;53.398;-1.514;2023-07-09T17:46:10;18.20;99.90
21104;DHT22;10710;53.398;-1.514;2023-07-09T17:48:55;18.00;99.90
21104;DHT22;10710;53.398;-1.514;2023-07-09T17:51:39;17.80;99.90
21104;DHT22;10710;53.398;-1.514;2023-07-09T17:54:25;17.80;99.90
21104;DHT22;10710;53.398;-1.514;2023-07-09T17:57:19;17.70;99.90
21104;DHT22;10710;53.398;-1.514;2023-07-09T18:00:08;17.80;99.90
21104;DHT22;10710;53.398;-1.514;2023-07-09T18:03:05;18.00;99.90
21104;DHT22;10710;53.398;-1.514;2023-07-09T18:05:50;18.20;99.90